Hockley Mine, Texas
Current Conditions -  °F | °C
As of 1:53 PM on Friday 24 Oct 2014 (Local Time) from KDWH Reporting Station
Clear Clear  
Wind Chill: 78°   Ceiling: Unl
Heat Index: 79°   Visibility: 10mi
Dew Point: 52°   Wind: 0mph
Humidity: 40%   Direction: NA
Pressure: 30.13"   Gusts: NA
Location:  30.0437°N, 95.8249°W
Report Text: KDWH 241853Z 00000KT 10SM CLR 26/11 A3013 RMK AO2 SLP199 T02560111
Loading
Personal Weather Stations






























Interactive Weather Map
Tropical Storm Tracking
New forecast layout! Learn more

10-Day Weather Forecast

Advertisements
Track Severe Weather on mobile